Parkside, New York
Current Conditions -  °F | °C
As of 8:51 PM on Friday 28 Nov 2014 (Local Time) from KLGA Reporting Station
Few Clouds Few Clouds  
Wind Chill: -6°   Ceiling: Unl
Heat Index: -1°   Visibility: 10mi
Dew Point: -11°   Wind: 10mph
Humidity: 49%   Direction: 320°NW
Pressure: 30.27"   Gusts: NA
Location:  40.7228°N, 73.845°W
Report Text: KLGA 290151Z 32009KT 10SM FEW250 M01/M11 A3027 RMK AO2 SLP249 T10111106
Loading
Personal Weather Stations






























Interactive Weather Map New forecast layout! Learn more

10-Day Weather Forecast

Advertisements
Track Severe Weather on mobile